Pagina principale
METAR-TAF:

METAR-TAF

Aeroporti :

Aeroporto di Salisburgo

Salisburgo, Austria

latitudine: 47-48N, longitudine: 013-00E, altezza: 430 m

Osservazione

Il bollettino è stato emesso 33 minuti fa, alle 00:20 UTC
Vento 4 kt da sud
Temperature 12°C
Umidità 82%
Pressione 1020 hPa
Visibilità 10 km o più

METAR: LOWS 150020Z AUTO 18004KT 9999 NSC 12/09 Q1020

Ora: 02:53 (00:53 UTC)

Previsione

Il bollettino è stato emesso 1 ora e 38 minuti fa, alle 23:15 UTC
Previsione valida dal 15 alle 00 UTC al 15 alle 24 UTC
Vento 5 kt da sud/sud-est
Visibilità 10 km o più
nessuna nube inferiore a 1500 m e nessun cumulonembo
Evoluzione graduale
dal 15 alle 07 UTC al 15 alle 09 UTC
Vento 5 kt da nord
Evoluzione graduale
dal 15 alle 19 UTC al 15 alle 21 UTC
Vento 4 kt da sud/sud-est

TAF: LOWS 142315Z 1500/1524 15005KT CAVOK TX27/1515Z TN11/1503Z BECMG 1507/1509 36005KT BECMG 1519/1521 15004KT

Osservazioni e previsioni meteorologiche di più di 4000 aeroporti (messaggi METAR e TAF).

Le stazioni disponibili sono rappresentate dai dischi gialli e rossi sulla carta.

Puntare il mouse per vedere il nome della stazione.

Clicca sopra per visualizzare le osservazioni e previsioni meteorologiche.

Per cambiare la mappa : fare clic sui pulsanti verdi con una croce nera per ingrandire, il pulsante verde con un trattino per diminuire, o sulla freccia verde per le mappe adiacenti.


METAR-TAF: